Airfield :
LOGIN :

Register | Disclaimer

   EN    FR    IT 

 










Legend :    VFR   Marginal VFR   IFR   Intensive IFR   Very Intensive IFR
Visi :
Ceiling :
>= 8 km
>= 3000ft
5 to 8 km
1000 to 3000 ft
1500m to 5 km
500 to 1000 ft
800 to 1500m
200 to 500 ft
< 800m
< 200 ft
Symbols :   Thunderstorms  Fog  Heavy snow  Heavy precipitations  Wind > 20 kt
SIGMETs :     Misc.  Thunderstorms  Icing  Turbulence  Mountain Waves  Volcanic Ashes






- Airport Elevation : 19 ft
- IATA code : DJE


DTTJ - Djerba Zarzis

CURRENT METAR :
  • 170100Z 10004KT CAVOK 24/18 Q1014 NOSIG

EXPIRED METARs :
  • 170030Z 11006KT CAVOK 25/18 Q1014 NOSIG
  • 170000Z 10007KT CAVOK 25/18 Q1015 NOSIG
  • 162300Z 09012KT CAVOK 25/18 Q1014 NOSIG
  • 162230Z 08014KT CAVOK 26/18 Q1014 NOSIG
  • 162200Z 08016KT CAVOK 26/18 Q1015 NOSIG
  • 162130Z 08015KT CAVOK 26/17 Q1015 NOSIG
  • 162100Z 07015KT CAVOK 26/18 Q1014 NOSIG
  • 162030Z 07017KT CAVOK 26/18 Q1014 NOSIG
  • 162000Z 07017KT CAVOK 26/17 Q1014 NOSIG

TAF TAF DTTJ
Valid from the 17 at 00:00 until the 18 at 00:00 UTC


162300Z 1700/1724 09010KT CAVOK



MET'MAP, your aeronautical weather chart ! - Copyright ORBIFLY December 2007 - Disclaimer

ORBIFLY MET'MAP TEAM :

Programming & Development : Alexandra Zaïnal
Original concept : Baudouin d'Aumeries
Technical & hardware support : Manuel Goepfert
Assistance : Marc-Olivier Méhu




SOURCES & CREDITS :

   NOAA